WARNING - Change wsUserSettings.php: $SITE["topfolder"] from : public_html./ to: ./
Iedere zaterdag na 11 uur op radio zuidwest.


Webcam zuid Meer informatie Webcam zuid


Webcam noord Meer informatie Webcam noord


Onweer radar Meer informatie blitzortung!


Regen radar Meer informatie rain snow radar


Bezoek onze andere website:

Template documentation
and downloads

Onze andere website


U vindt ons ook hier:

Het Weer Aktueel

UK Metoffice

European Weather Network

WeatherCloud

Weather Underground

Austria Weather Network

AWEKAS

Citizen Weather Observer Program (CWOP)

HAMweather, WeatherForYou, PWS Weather

Wetterpage 24

Roosendaal op internet

VWKWEB

RadioZuidWestFM



We konden geen weer-waarchuwingen ophalen. Ga rechtstreeks naar de Meteoalarm site : www.meteoalarm.eu en controleer daar .

METAR rapporten vliegvelden

   
EHWO - Bergen op Zoom
Gewijzigd: 26-01-2022 00:11
Nevel, Bewolking  
Nevel, Bewolking  
   Wind: WZW 5.6 km/h
Wind: WZW 5.6 km/h
Temperatuur: 2°C
Voelt als: 1°C
Dauwpunt: 0°C
Vochtigheid: 87%
Barometer: 1033 hPa
Bewolking: Bewolking
Zicht: 5 km
Bewolking: Bewolking 1400 ft
EHWO 252311Z AUTO 24003KT 240V310 5000 BR OVC014 02/M00 Q1033 GRN
EHWO - Woensdrecht
Gewijzigd: 26-01-2022 00:11
Nevel, Bewolking  
Nevel, Bewolking  
   Wind: WZW 5.6 km/h
Wind: WZW 5.6 km/h
Temperatuur: 2°C
Voelt als: 1°C
Dauwpunt: 0°C
Vochtigheid: 87%
Barometer: 1033 hPa
Bewolking: Bewolking
Zicht: 5 km
Bewolking: Bewolking 1400 ft
EHWO 252311Z AUTO 24003KT 240V310 5000 BR OVC014 02/M00 Q1033 GRN
EHWO - Steenbergen
Gewijzigd: 26-01-2022 00:11
Nevel, Bewolking  
Nevel, Bewolking  
   Wind: WZW 5.6 km/h
Wind: WZW 5.6 km/h
Temperatuur: 2°C
Voelt als: 1°C
Dauwpunt: 0°C
Vochtigheid: 87%
Barometer: 1033 hPa
Bewolking: Bewolking
Zicht: 5 km
Bewolking: Bewolking 1400 ft
EHWO 252311Z AUTO 24003KT 240V310 5000 BR OVC014 02/M00 Q1033 GRN
EHWO - Oud-Gastel
Gewijzigd: 26-01-2022 00:11
Nevel, Bewolking  
Nevel, Bewolking  
   Wind: WZW 5.6 km/h
Wind: WZW 5.6 km/h
Temperatuur: 2°C
Voelt als: 1°C
Dauwpunt: 0°C
Vochtigheid: 87%
Barometer: 1033 hPa
Bewolking: Bewolking
Zicht: 5 km
Bewolking: Bewolking 1400 ft
EHWO 252311Z AUTO 24003KT 240V310 5000 BR OVC014 02/M00 Q1033 GRN
EHWO - Oudenbosch
Gewijzigd: 26-01-2022 00:11
Nevel, Bewolking  
Nevel, Bewolking  
   Wind: WZW 5.6 km/h
Wind: WZW 5.6 km/h
Temperatuur: 2°C
Voelt als: 1°C
Dauwpunt: 0°C
Vochtigheid: 87%
Barometer: 1033 hPa
Bewolking: Bewolking
Zicht: 5 km
Bewolking: Bewolking 1400 ft
EHWO 252311Z AUTO 24003KT 240V310 5000 BR OVC014 02/M00 Q1033 GRN
EHWO - Rucphen
Gewijzigd: 26-01-2022 00:11
Nevel, Bewolking  
Nevel, Bewolking  
   Wind: WZW 5.6 km/h
Wind: WZW 5.6 km/h
Temperatuur: 2°C
Voelt als: 1°C
Dauwpunt: 0°C
Vochtigheid: 87%
Barometer: 1033 hPa
Bewolking: Bewolking
Zicht: 5 km
Bewolking: Bewolking 1400 ft
EHWO 252311Z AUTO 24003KT 240V310 5000 BR OVC014 02/M00 Q1033 GRN
EHWO - Bergen op Zoom
Gewijzigd: 26-01-2022 00:11
Nevel, Bewolking  
Nevel, Bewolking  
   Wind: WZW 5.6 km/h
Wind: WZW 5.6 km/h
Temperatuur: 2°C
Voelt als: 1°C
Dauwpunt: 0°C
Vochtigheid: 87%
Barometer: 1033 hPa
Bewolking: Bewolking
Zicht: 5 km
Bewolking: Bewolking 1400 ft
EHWO 252311Z AUTO 24003KT 240V310 5000 BR OVC014 02/M00 Q1033 GRN
EHWO - Fijnaart
Gewijzigd: 26-01-2022 00:11
Nevel, Bewolking  
Nevel, Bewolking  
   Wind: WZW 5.6 km/h
Wind: WZW 5.6 km/h
Temperatuur: 2°C
Voelt als: 1°C
Dauwpunt: 0°C
Vochtigheid: 87%
Barometer: 1033 hPa
Bewolking: Bewolking
Zicht: 5 km
Bewolking: Bewolking 1400 ft
EHWO 252311Z AUTO 24003KT 240V310 5000 BR OVC014 02/M00 Q1033 GRN
EHWO - Ossendrecht
Gewijzigd: 26-01-2022 00:11
Nevel, Bewolking  
Nevel, Bewolking  
   Wind: WZW 5.6 km/h
Wind: WZW 5.6 km/h
Temperatuur: 2°C
Voelt als: 1°C
Dauwpunt: 0°C
Vochtigheid: 87%
Barometer: 1033 hPa
Bewolking: Bewolking
Zicht: 5 km
Bewolking: Bewolking 1400 ft
EHWO 252311Z AUTO 24003KT 240V310 5000 BR OVC014 02/M00 Q1033 GRN

Script ontwikkeld door  Saratoga-weather.org Aangepast voor de template door  Weerstation Leuven

Apparatuur in gebruik:

Weerstation
Davis VP2

Weerprogramma
Meteobridge

Weercomputer
Shuttle

Webleverancier
WeservIT

Davis VP2

Meteobridge

Shuttle

WeservIT